sensor_id;sensor_type;location;lat;lon;timestamp;P1;durP1;ratioP1;P2;durP2;ratioP2
44428;SDS011;30134;47.866;-4.222;2023-05-31T00:02:18;8.73;;;3.65;;
44428;SDS011;30134;47.866;-4.222;2023-05-31T00:04:44;12.38;;;3.67;;
44428;SDS011;30134;47.866;-4.222;2023-05-31T00:07:10;13.13;;;3.85;;
44428;SDS011;30134;47.866;-4.222;2023-05-31T00:09:36;8.52;;;3.63;;
44428;SDS011;30134;47.866;-4.222;2023-05-31T00:12:02;10.20;;;4.05;;
44428;SDS011;30134;47.866;-4.222;2023-05-31T00:14:28;8.40;;;3.95;;
44428;SDS011;30134;47.866;-4.222;2023-05-31T00:16:54;8.98;;;3.28;;
44428;SDS011;30134;47.866;-4.222;2023-05-31T00:19:20;10.20;;;3.63;;
44428;SDS011;30134;47.866;-4.222;2023-05-31T00:21:46;8.88;;;3.67;;
44428;SDS011;30134;47.866;-4.222;2023-05-31T00:24:12;9.75;;;3.40;;
44428;SDS011;30134;47.866;-4.222;2023-05-31T00:26:39;8.00;;;3.30;;
44428;SDS011;30134;47.866;-4.222;2023-05-31T00:29:05;10.63;;;3.85;;
44428;SDS011;30134;47.866;-4.222;2023-05-31T00:31:31;8.18;;;3.33;;
44428;SDS011;30134;47.866;-4.222;2023-05-31T00:33:57;7.60;;;3.47;;
44428;SDS011;30134;47.866;-4.222;2023-05-31T00:36:23;9.68;;;3.55;;
44428;SDS011;30134;47.866;-4.222;2023-05-31T00:38:50;7.32;;;3.10;;
44428;SDS011;30134;47.866;-4.222;2023-05-31T00:41:16;8.27;;;3.40;;
44428;SDS011;30134;47.866;-4.222;2023-05-31T00:43:42;8.40;;;3.17;;
44428;SDS011;30134;47.866;-4.222;2023-05-31T00:46:10;6.82;;;2.95;;
44428;SDS011;30134;47.866;-4.222;2023-05-31T00:49:03;6.93;;;3.25;;
44428;SDS011;30134;47.866;-4.222;2023-05-31T00:51:29;9.15;;;3.05;;
44428;SDS011;30134;47.866;-4.222;2023-05-31T00:53:57;8.38;;;3.38;;
44428;SDS011;30134;47.866;-4.222;2023-05-31T00:56:25;6.32;;;3.35;;
44428;SDS011;30134;47.866;-4.222;2023-05-31T00:58:51;11.05;;;3.95;;
44428;SDS011;30134;47.866;-4.222;2023-05-31T01:01:22;6.22;;;2.88;;
44428;SDS011;30134;47.866;-4.222;2023-05-31T01:03:55;7.68;;;3.55;;
44428;SDS011;30134;47.866;-4.222;2023-05-31T01:06:22;6.40;;;2.80;;
44428;SDS011;30134;47.866;-4.222;2023-05-31T01:08:49;9.25;;;3.45;;
44428;SDS011;30134;47.866;-4.222;2023-05-31T01:11:26;7.88;;;3.25;;
44428;SDS011;30134;47.866;-4.222;2023-05-31T01:14:21;7.57;;;3.28;;
44428;SDS011;30134;47.866;-4.222;2023-05-31T01:17:04;6.70;;;2.90;;
44428;SDS011;30134;47.866;-4.222;2023-05-31T01:19:52;5.97;;;3.15;;
44428;SDS011;30134;47.866;-4.222;2023-05-31T01:22:23;5.20;;;2.50;;
44428;SDS011;30134;47.866;-4.222;2023-05-31T01:27:46;8.23;;;3.38;;
44428;SDS011;30134;47.866;-4.222;2023-05-31T01:30:12;6.35;;;2.97;;
44428;SDS011;30134;47.866;-4.222;2023-05-31T01:32:41;6.38;;;3.17;;
44428;SDS011;30134;47.866;-4.222;2023-05-31T01:35:09;7.32;;;3.13;;
44428;SDS011;30134;47.866;-4.222;2023-05-31T01:37:34;7.82;;;3.38;;
44428;SDS011;30134;47.866;-4.222;2023-05-31T01:40:00;8.15;;;3.50;;
44428;SDS011;30134;47.866;-4.222;2023-05-31T01:42:28;6.60;;;3.25;;
44428;SDS011;30134;47.866;-4.222;2023-05-31T01:44:55;5.13;;;3.08;;
44428;SDS011;30134;47.866;-4.222;2023-05-31T01:47:22;5.90;;;3.33;;
44428;SDS011;30134;47.866;-4.222;2023-05-31T01:49:48;7.55;;;3.20;;
44428;SDS011;30134;47.866;-4.222;2023-05-31T01:52:15;7.72;;;3.38;;
44428;SDS011;30134;47.866;-4.222;2023-05-31T01:54:42;6.13;;;2.92;;
44428;SDS011;30134;47.866;-4.222;2023-05-31T01:57:08;7.22;;;2.90;;
44428;SDS011;30134;47.866;-4.222;2023-05-31T01:59:35;6.57;;;3.40;;
44428;SDS011;30134;47.866;-4.222;2023-05-31T02:02:02;6.95;;;2.88;;
44428;SDS011;30134;47.866;-4.222;2023-05-31T02:04:30;6.88;;;2.97;;
44428;SDS011;30134;47.866;-4.222;2023-05-31T02:06:56;5.10;;;2.70;;
44428;SDS011;30134;47.866;-4.222;2023-05-31T02:09:23;8.35;;;3.10;;
44428;SDS011;30134;47.866;-4.222;2023-05-31T02:11:49;6.65;;;3.10;;
44428;SDS011;30134;47.866;-4.222;2023-05-31T02:14:15;7.18;;;3.25;;
44428;SDS011;30134;47.866;-4.222;2023-05-31T02:16:41;8.57;;;3.47;;
44428;SDS011;30134;47.866;-4.222;2023-05-31T02:19:07;7.28;;;2.85;;
44428;SDS011;30134;47.866;-4.222;2023-05-31T02:21:33;5.43;;;2.72;;
44428;SDS011;30134;47.866;-4.222;2023-05-31T02:24:02;7.47;;;2.95;;
44428;SDS011;30134;47.866;-4.222;2023-05-31T02:26:29;4.55;;;2.58;;
44428;SDS011;30134;47.866;-4.222;2023-05-31T02:28:55;6.22;;;2.90;;
44428;SDS011;30134;47.866;-4.222;2023-05-31T02:31:21;5.63;;;2.85;;
44428;SDS011;30134;47.866;-4.222;2023-05-31T02:33:47;6.30;;;2.70;;
44428;SDS011;30134;47.866;-4.222;2023-05-31T02:36:13;5.18;;;2.65;;
44428;SDS011;30134;47.866;-4.222;2023-05-31T02:38:40;5.45;;;2.65;;
44428;SDS011;30134;47.866;-4.222;2023-05-31T02:41:06;5.60;;;2.88;;
44428;SDS011;30134;47.866;-4.222;2023-05-31T02:43:32;5.90;;;3.00;;
44428;SDS011;30134;47.866;-4.222;2023-05-31T02:45:58;4.68;;;2.50;;
44428;SDS011;30134;47.866;-4.222;2023-05-31T02:48:27;4.43;;;2.38;;
44428;SDS011;30134;47.866;-4.222;2023-05-31T02:50:54;5.72;;;2.90;;
44428;SDS011;30134;47.866;-4.222;2023-05-31T02:53:21;6.93;;;2.90;;
44428;SDS011;30134;47.866;-4.222;2023-05-31T02:55:47;6.03;;;3.00;;
44428;SDS011;30134;47.866;-4.222;2023-05-31T02:58:13;8.50;;;3.28;;
44428;SDS011;30134;47.866;-4.222;2023-05-31T03:00:40;8.93;;;3.30;;
44428;SDS011;30134;47.866;-4.222;2023-05-31T03:03:06;7.32;;;2.65;;
44428;SDS011;30134;47.866;-4.222;2023-05-31T03:05:32;5.70;;;2.58;;
44428;SDS011;30134;47.866;-4.222;2023-05-31T03:07:59;4.32;;;2.60;;
44428;SDS011;30134;47.866;-4.222;2023-05-31T03:10:25;4.82;;;2.67;;
44428;SDS011;30134;47.866;-4.222;2023-05-31T03:12:54;6.32;;;2.67;;
44428;SDS011;30134;47.866;-4.222;2023-05-31T03:15:20;4.90;;;2.70;;
44428;SDS011;30134;47.866;-4.222;2023-05-31T03:17:46;4.53;;;2.88;;
44428;SDS011;30134;47.866;-4.222;2023-05-31T03:20:12;5.25;;;2.80;;
44428;SDS011;30134;47.866;-4.222;2023-05-31T03:22:38;6.40;;;2.72;;
44428;SDS011;30134;47.866;-4.222;2023-05-31T03:25:04;7.00;;;2.80;;
44428;SDS011;30134;47.866;-4.222;2023-05-31T03:27:31;3.65;;;2.53;;
44428;SDS011;30134;47.866;-4.222;2023-05-31T03:29:57;4.53;;;2.45;;
44428;SDS011;30134;47.866;-4.222;2023-05-31T03:32:23;3.60;;;2.22;;
44428;SDS011;30134;47.866;-4.222;2023-05-31T03:34:50;6.32;;;2.92;;
44428;SDS011;30134;47.866;-4.222;2023-05-31T03:37:16;6.50;;;3.15;;
44428;SDS011;30134;47.866;-4.222;2023-05-31T03:39:42;6.93;;;2.65;;
44428;SDS011;30134;47.866;-4.222;2023-05-31T03:42:08;5.20;;;2.80;;
44428;SDS011;30134;47.866;-4.222;2023-05-31T03:44:34;6.93;;;2.63;;
44428;SDS011;30134;47.866;-4.222;2023-05-31T03:47:00;5.65;;;2.97;;
44428;SDS011;30134;47.866;-4.222;2023-05-31T03:49:26;6.15;;;2.58;;
44428;SDS011;30134;47.866;-4.222;2023-05-31T03:51:52;5.78;;;2.67;;
44428;SDS011;30134;47.866;-4.222;2023-05-31T03:54:18;5.88;;;2.70;;
44428;SDS011;30134;47.866;-4.222;2023-05-31T03:56:45;4.97;;;2.45;;
44428;SDS011;30134;47.866;-4.222;2023-05-31T03:59:11;5.80;;;2.55;;
44428;SDS011;30134;47.866;-4.222;2023-05-31T04:01:37;6.25;;;2.67;;
44428;SDS011;30134;47.866;-4.222;2023-05-31T04:04:03;6.25;;;2.90;;
44428;SDS011;30134;47.866;-4.222;2023-05-31T04:06:28;6.85;;;2.80;;
44428;SDS011;30134;47.866;-4.222;2023-05-31T04:08:54;5.35;;;2.53;;
44428;SDS011;30134;47.866;-4.222;2023-05-31T04:11:21;5.85;;;2.97;;
44428;SDS011;30134;47.866;-4.222;2023-05-31T04:13:48;4.93;;;2.63;;
44428;SDS011;30134;47.866;-4.222;2023-05-31T04:16:14;5.65;;;2.70;;
44428;SDS011;30134;47.866;-4.222;2023-05-31T04:18:40;6.00;;;2.67;;
44428;SDS011;30134;47.866;-4.222;2023-05-31T04:21:06;6.45;;;2.60;;
44428;SDS011;30134;47.866;-4.222;2023-05-31T04:23:32;8.52;;;2.72;;
44428;SDS011;30134;47.866;-4.222;2023-05-31T04:26:00;7.72;;;3.25;;
44428;SDS011;30134;47.866;-4.222;2023-05-31T04:28:27;4.65;;;2.53;;
44428;SDS011;30134;47.866;-4.222;2023-05-31T04:30:55;5.88;;;3.22;;
44428;SDS011;30134;47.866;-4.222;2023-05-31T04:33:23;5.80;;;2.65;;
44428;SDS011;30134;47.866;-4.222;2023-05-31T04:35:54;8.60;;;3.13;;
44428;SDS011;30134;47.866;-4.222;2023-05-31T04:38:22;5.72;;;2.85;;
44428;SDS011;30134;47.866;-4.222;2023-05-31T04:40:52;6.95;;;3.03;;
44428;SDS011;30134;47.866;-4.222;2023-05-31T04:43:20;5.75;;;2.95;;
44428;SDS011;30134;47.866;-4.222;2023-05-31T04:45:46;8.38;;;4.07;;
44428;SDS011;30134;47.866;-4.222;2023-05-31T04:48:35;8.93;;;3.35;;
44428;SDS011;30134;47.866;-4.222;2023-05-31T04:51:02;9.18;;;3.38;;
44428;SDS011;30134;47.866;-4.222;2023-05-31T04:53:29;10.82;;;3.85;;
44428;SDS011;30134;47.866;-4.222;2023-05-31T04:55:55;9.48;;;3.53;;
44428;SDS011;30134;47.866;-4.222;2023-05-31T04:58:21;16.48;;;3.78;;
44428;SDS011;30134;47.866;-4.222;2023-05-31T05:00:47;13.48;;;4.40;;
44428;SDS011;30134;47.866;-4.222;2023-05-31T05:03:16;7.68;;;3.47;;
44428;SDS011;30134;47.866;-4.222;2023-05-31T05:05:43;8.57;;;3.53;;
44428;SDS011;30134;47.866;-4.222;2023-05-31T05:08:09;9.40;;;4.05;;
44428;SDS011;30134;47.866;-4.222;2023-05-31T05:10:35;12.20;;;4.05;;
44428;SDS011;30134;47.866;-4.222;2023-05-31T05:13:01;13.63;;;4.07;;
44428;SDS011;30134;47.866;-4.222;2023-05-31T05:15:28;11.30;;;3.90;;
44428;SDS011;30134;47.866;-4.222;2023-05-31T05:17:54;8.95;;;4.00;;
44428;SDS011;30134;47.866;-4.222;2023-05-31T05:20:20;10.40;;;3.78;;
44428;SDS011;30134;47.866;-4.222;2023-05-31T05:22:51;12.63;;;4.25;;
44428;SDS011;30134;47.866;-4.222;2023-05-31T05:25:17;8.05;;;3.70;;
44428;SDS011;30134;47.866;-4.222;2023-05-31T05:27:45;9.00;;;3.58;;
44428;SDS011;30134;47.866;-4.222;2023-05-31T05:30:12;5.60;;;3.58;;
44428;SDS011;30134;47.866;-4.222;2023-05-31T05:32:39;11.55;;;4.32;;
44428;SDS011;30134;47.866;-4.222;2023-05-31T05:35:05;11.30;;;3.58;;
44428;SDS011;30134;47.866;-4.222;2023-05-31T05:37:31;13.00;;;4.10;;
44428;SDS011;30134;47.866;-4.222;2023-05-31T05:39:57;7.68;;;3.47;;
44428;SDS011;30134;47.866;-4.222;2023-05-31T05:42:25;7.80;;;3.50;;
44428;SDS011;30134;47.866;-4.222;2023-05-31T05:44:56;6.90;;;3.28;;
44428;SDS011;30134;47.866;-4.222;2023-05-31T05:47:21;7.15;;;3.40;;
44428;SDS011;30134;47.866;-4.222;2023-05-31T05:49:47;7.88;;;3.20;;
44428;SDS011;30134;47.866;-4.222;2023-05-31T05:52:13;8.55;;;3.40;;
44428;SDS011;30134;47.866;-4.222;2023-05-31T05:54:39;10.43;;;4.03;;
44428;SDS011;30134;47.866;-4.222;2023-05-31T05:57:05;11.13;;;3.95;;
44428;SDS011;30134;47.866;-4.222;2023-05-31T05:59:32;5.57;;;3.22;;
44428;SDS011;30134;47.866;-4.222;2023-05-31T06:01:58;8.32;;;3.80;;
44428;SDS011;30134;47.866;-4.222;2023-05-31T06:04:24;8.65;;;3.67;;
44428;SDS011;30134;47.866;-4.222;2023-05-31T06:06:50;10.23;;;4.22;;
44428;SDS011;30134;47.866;-4.222;2023-05-31T06:09:16;14.55;;;4.32;;
44428;SDS011;30134;47.866;-4.222;2023-05-31T06:11:42;9.38;;;3.83;;
44428;SDS011;30134;47.866;-4.222;2023-05-31T06:14:08;8.38;;;3.70;;
44428;SDS011;30134;47.866;-4.222;2023-05-31T06:16:34;9.82;;;3.80;;
44428;SDS011;30134;47.866;-4.222;2023-05-31T06:19:00;8.80;;;3.80;;
44428;SDS011;30134;47.866;-4.222;2023-05-31T06:21:26;10.50;;;3.72;;
44428;SDS011;30134;47.866;-4.222;2023-05-31T06:23:52;10.93;;;4.43;;
44428;SDS011;30134;47.866;-4.222;2023-05-31T06:26:18;13.43;;;4.55;;
44428;SDS011;30134;47.866;-4.222;2023-05-31T06:28:44;8.85;;;4.03;;
44428;SDS011;30134;47.866;-4.222;2023-05-31T06:31:11;8.65;;;3.88;;
44428;SDS011;30134;47.866;-4.222;2023-05-31T06:33:37;12.10;;;4.05;;
44428;SDS011;30134;47.866;-4.222;2023-05-31T06:36:03;7.75;;;3.60;;
44428;SDS011;30134;47.866;-4.222;2023-05-31T06:38:29;8.48;;;3.88;;
44428;SDS011;30134;47.866;-4.222;2023-05-31T06:40:55;12.63;;;4.15;;
44428;SDS011;30134;47.866;-4.222;2023-05-31T06:43:25;9.48;;;4.38;;
44428;SDS011;30134;47.866;-4.222;2023-05-31T06:45:51;10.80;;;4.25;;
44428;SDS011;30134;47.866;-4.222;2023-05-31T06:48:17;9.27;;;3.95;;
44428;SDS011;30134;47.866;-4.222;2023-05-31T06:50:43;14.38;;;4.10;;
44428;SDS011;30134;47.866;-4.222;2023-05-31T06:53:09;8.23;;;3.85;;
44428;SDS011;30134;47.866;-4.222;2023-05-31T06:55:38;11.63;;;4.10;;
44428;SDS011;30134;47.866;-4.222;2023-05-31T06:58:04;7.90;;;3.88;;
44428;SDS011;30134;47.866;-4.222;2023-05-31T07:00:30;8.90;;;4.07;;
44428;SDS011;30134;47.866;-4.222;2023-05-31T07:02:57;11.18;;;3.97;;
44428;SDS011;30134;47.866;-4.222;2023-05-31T07:05:23;8.60;;;4.38;;
44428;SDS011;30134;47.866;-4.222;2023-05-31T07:07:49;8.05;;;3.72;;
44428;SDS011;30134;47.866;-4.222;2023-05-31T07:10:15;11.88;;;4.35;;
44428;SDS011;30134;47.866;-4.222;2023-05-31T07:12:42;9.27;;;4.50;;
44428;SDS011;30134;47.866;-4.222;2023-05-31T07:15:15;10.77;;;3.83;;
44428;SDS011;30134;47.866;-4.222;2023-05-31T07:17:43;10.43;;;3.85;;
44428;SDS011;30134;47.866;-4.222;2023-05-31T07:20:09;13.93;;;5.40;;
44428;SDS011;30134;47.866;-4.222;2023-05-31T07:22:36;13.38;;;4.50;;
44428;SDS011;30134;47.866;-4.222;2023-05-31T07:25:03;10.50;;;4.50;;
44428;SDS011;30134;47.866;-4.222;2023-05-31T07:27:30;9.52;;;4.05;;
44428;SDS011;30134;47.866;-4.222;2023-05-31T07:29:56;11.45;;;4.45;;
44428;SDS011;30134;47.866;-4.222;2023-05-31T07:32:23;10.45;;;4.55;;
44428;SDS011;30134;47.866;-4.222;2023-05-31T07:34:49;11.07;;;3.95;;
44428;SDS011;30134;47.866;-4.222;2023-05-31T07:37:15;12.07;;;4.60;;
44428;SDS011;30134;47.866;-4.222;2023-05-31T07:39:43;14.77;;;4.47;;
44428;SDS011;30134;47.866;-4.222;2023-05-31T07:42:09;9.38;;;4.70;;
44428;SDS011;30134;47.866;-4.222;2023-05-31T07:44:37;10.95;;;3.92;;
44428;SDS011;30134;47.866;-4.222;2023-05-31T07:47:04;10.48;;;4.30;;
44428;SDS011;30134;47.866;-4.222;2023-05-31T07:49:30;12.57;;;4.45;;
44428;SDS011;30134;47.866;-4.222;2023-05-31T07:51:56;10.57;;;4.30;;
44428;SDS011;30134;47.866;-4.222;2023-05-31T07:54:22;10.55;;;4.22;;
44428;SDS011;30134;47.866;-4.222;2023-05-31T07:56:48;13.05;;;4.50;;
44428;SDS011;30134;47.866;-4.222;2023-05-31T07:59:14;12.48;;;4.57;;
44428;SDS011;30134;47.866;-4.222;2023-05-31T08:01:41;12.30;;;4.78;;
44428;SDS011;30134;47.866;-4.222;2023-05-31T08:04:11;10.95;;;4.57;;
44428;SDS011;30134;47.866;-4.222;2023-05-31T08:06:37;10.73;;;4.07;;
44428;SDS011;30134;47.866;-4.222;2023-05-31T08:09:04;11.77;;;4.20;;
44428;SDS011;30134;47.866;-4.222;2023-05-31T08:11:33;9.80;;;4.18;;
44428;SDS011;30134;47.866;-4.222;2023-05-31T08:14:06;6.60;;;3.67;;
44428;SDS011;30134;47.866;-4.222;2023-05-31T08:16:33;9.18;;;4.05;;
44428;SDS011;30134;47.866;-4.222;2023-05-31T08:18:59;12.02;;;4.60;;
44428;SDS011;30134;47.866;-4.222;2023-05-31T08:24:04;12.55;;;4.75;;
44428;SDS011;30134;47.866;-4.222;2023-05-31T08:29:04;16.00;;;5.15;;
44428;SDS011;30134;47.866;-4.222;2023-05-31T08:31:30;20.40;;;4.82;;
44428;SDS011;30134;47.866;-4.222;2023-05-31T08:33:57;13.82;;;4.85;;
44428;SDS011;30134;47.866;-4.222;2023-05-31T08:36:26;9.75;;;4.18;;
44428;SDS011;30134;47.866;-4.222;2023-05-31T08:38:53;17.42;;;4.70;;
44428;SDS011;30134;47.866;-4.222;2023-05-31T08:41:19;13.55;;;4.47;;
44428;SDS011;30134;47.866;-4.222;2023-05-31T08:43:47;13.63;;;4.60;;
44428;SDS011;30134;47.866;-4.222;2023-05-31T08:46:16;12.85;;;4.32;;
44428;SDS011;30134;47.866;-4.222;2023-05-31T08:48:56;16.23;;;4.73;;
44428;SDS011;30134;47.866;-4.222;2023-05-31T08:51:30;12.95;;;4.05;;
44428;SDS011;30134;47.866;-4.222;2023-05-31T08:53:59;15.02;;;4.47;;
44428;SDS011;30134;47.866;-4.222;2023-05-31T08:56:27;15.52;;;4.55;;
44428;SDS011;30134;47.866;-4.222;2023-05-31T08:58:54;9.93;;;4.40;;
44428;SDS011;30134;47.866;-4.222;2023-05-31T09:01:20;11.85;;;4.22;;
44428;SDS011;30134;47.866;-4.222;2023-05-31T09:03:47;12.05;;;4.07;;
44428;SDS011;30134;47.866;-4.222;2023-05-31T09:06:14;16.38;;;5.05;;
44428;SDS011;30134;47.866;-4.222;2023-05-31T09:08:41;18.60;;;4.53;;
44428;SDS011;30134;47.866;-4.222;2023-05-31T09:11:08;15.30;;;4.50;;
44428;SDS011;30134;47.866;-4.222;2023-05-31T09:13:34;13.65;;;4.13;;
44428;SDS011;30134;47.866;-4.222;2023-05-31T09:16:00;12.10;;;4.82;;
44428;SDS011;30134;47.866;-4.222;2023-05-31T09:18:26;13.48;;;4.60;;
44428;SDS011;30134;47.866;-4.222;2023-05-31T09:21:00;12.55;;;4.75;;
44428;SDS011;30134;47.866;-4.222;2023-05-31T09:23:40;13.60;;;4.85;;
44428;SDS011;30134;47.866;-4.222;2023-05-31T09:26:18;9.43;;;4.45;;
44428;SDS011;30134;47.866;-4.222;2023-05-31T09:28:48;12.85;;;4.85;;
44428;SDS011;30134;47.866;-4.222;2023-05-31T09:31:18;10.57;;;4.18;;
44428;SDS011;30134;47.866;-4.222;2023-05-31T09:33:48;12.98;;;4.68;;
44428;SDS011;30134;47.866;-4.222;2023-05-31T09:38:53;13.57;;;4.50;;
44428;SDS011;30134;47.866;-4.222;2023-05-31T09:41:29;13.38;;;4.63;;
44428;SDS011;30134;47.866;-4.222;2023-05-31T09:44:03;13.13;;;4.75;;
44428;SDS011;30134;47.866;-4.222;2023-05-31T09:46:35;16.33;;;5.00;;
44428;SDS011;30134;47.866;-4.222;2023-05-31T09:49:05;16.95;;;4.85;;
44428;SDS011;30134;47.866;-4.222;2023-05-31T09:51:32;15.93;;;4.90;;
44428;SDS011;30134;47.866;-4.222;2023-05-31T09:54:02;13.82;;;4.88;;
44428;SDS011;30134;47.866;-4.222;2023-05-31T09:56:40;16.17;;;5.43;;
44428;SDS011;30134;47.866;-4.222;2023-05-31T09:59:06;14.85;;;4.60;;
44428;SDS011;30134;47.866;-4.222;2023-05-31T10:01:36;11.77;;;5.10;;
44428;SDS011;30134;47.866;-4.222;2023-05-31T10:04:02;17.77;;;5.65;;
44428;SDS011;30134;47.866;-4.222;2023-05-31T10:06:31;13.75;;;5.10;;
44428;SDS011;30134;47.866;-4.222;2023-05-31T10:09:01;14.10;;;5.03;;
44428;SDS011;30134;47.866;-4.222;2023-05-31T10:11:33;12.00;;;4.70;;
44428;SDS011;30134;47.866;-4.222;2023-05-31T10:14:08;14.65;;;4.68;;
44428;SDS011;30134;47.866;-4.222;2023-05-31T10:16:51;12.52;;;5.03;;
44428;SDS011;30134;47.866;-4.222;2023-05-31T10:19:22;11.93;;;4.35;;
44428;SDS011;30134;47.866;-4.222;2023-05-31T10:22:05;13.80;;;4.88;;
44428;SDS011;30134;47.866;-4.222;2023-05-31T10:24:51;18.45;;;5.13;;
44428;SDS011;30134;47.866;-4.222;2023-05-31T10:27:29;11.35;;;4.45;;
44428;SDS011;30134;47.866;-4.222;2023-05-31T10:30:03;14.10;;;5.10;;
44428;SDS011;30134;47.866;-4.222;2023-05-31T10:32:34;12.20;;;4.70;;
44428;SDS011;30134;47.866;-4.222;2023-05-31T10:35:11;14.25;;;4.95;;
44428;SDS011;30134;47.866;-4.222;2023-05-31T10:37:38;15.10;;;5.22;;
44428;SDS011;30134;47.866;-4.222;2023-05-31T10:40:09;11.05;;;4.45;;
44428;SDS011;30134;47.866;-4.222;2023-05-31T10:46:13;18.50;;;5.30;;
44428;SDS011;30134;47.866;-4.222;2023-05-31T10:51:40;12.25;;;4.70;;
44428;SDS011;30134;47.866;-4.222;2023-05-31T10:54:18;16.67;;;5.15;;
44428;SDS011;30134;47.866;-4.222;2023-05-31T10:56:52;14.48;;;4.90;;
44428;SDS011;30134;47.866;-4.222;2023-05-31T10:59:23;10.13;;;4.78;;
44428;SDS011;30134;47.866;-4.222;2023-05-31T11:01:51;10.73;;;4.97;;
44428;SDS011;30134;47.866;-4.222;2023-05-31T11:04:18;11.55;;;5.18;;
44428;SDS011;30134;47.866;-4.222;2023-05-31T11:06:46;12.32;;;4.65;;
44428;SDS011;30134;47.866;-4.222;2023-05-31T11:09:16;10.68;;;4.57;;
44428;SDS011;30134;47.866;-4.222;2023-05-31T11:11:44;11.88;;;4.88;;
44428;SDS011;30134;47.866;-4.222;2023-05-31T11:19:28;13.97;;;5.00;;
44428;SDS011;30134;47.866;-4.222;2023-05-31T11:22:15;13.13;;;4.93;;
44428;SDS011;30134;47.866;-4.222;2023-05-31T11:27:16;14.25;;;5.28;;
44428;SDS011;30134;47.866;-4.222;2023-05-31T11:32:15;11.02;;;5.50;;
44428;SDS011;30134;47.866;-4.222;2023-05-31T11:35:03;13.48;;;5.18;;
44428;SDS011;30134;47.866;-4.222;2023-05-31T11:37:34;14.75;;;5.72;;
44428;SDS011;30134;47.866;-4.222;2023-05-31T11:40:05;14.65;;;5.50;;
44428;SDS011;30134;47.866;-4.222;2023-05-31T11:42:38;14.02;;;6.22;;
44428;SDS011;30134;47.866;-4.222;2023-05-31T11:45:06;13.95;;;5.18;;
44428;SDS011;30134;47.866;-4.222;2023-05-31T11:48:10;14.48;;;5.55;;
44428;SDS011;30134;47.866;-4.222;2023-05-31T11:50:45;13.70;;;6.05;;
44428;SDS011;30134;47.866;-4.222;2023-05-31T11:53:11;19.08;;;5.53;;
44428;SDS011;30134;47.866;-4.222;2023-05-31T11:55:44;12.18;;;5.32;;
44428;SDS011;30134;47.866;-4.222;2023-05-31T11:58:13;16.20;;;5.88;;
44428;SDS011;30134;47.866;-4.222;2023-05-31T12:00:46;18.90;;;5.63;;
44428;SDS011;30134;47.866;-4.222;2023-05-31T12:03:16;10.30;;;5.03;;
44428;SDS011;30134;47.866;-4.222;2023-05-31T12:05:49;11.27;;;5.18;;
44428;SDS011;30134;47.866;-4.222;2023-05-31T12:08:19;13.18;;;5.65;;
44428;SDS011;30134;47.866;-4.222;2023-05-31T12:10:45;15.80;;;6.03;;
44428;SDS011;30134;47.866;-4.222;2023-05-31T12:13:11;13.90;;;5.82;;
44428;SDS011;30134;47.866;-4.222;2023-05-31T12:15:40;13.77;;;5.15;;
44428;SDS011;30134;47.866;-4.222;2023-05-31T12:18:06;11.07;;;4.88;;
44428;SDS011;30134;47.866;-4.222;2023-05-31T12:20:33;18.23;;;5.50;;
44428;SDS011;30134;47.866;-4.222;2023-05-31T12:23:09;12.50;;;5.75;;
44428;SDS011;30134;47.866;-4.222;2023-05-31T12:25:42;10.73;;;5.60;;
44428;SDS011;30134;47.866;-4.222;2023-05-31T12:28:12;13.00;;;4.97;;
44428;SDS011;30134;47.866;-4.222;2023-05-31T12:30:41;14.15;;;5.13;;
44428;SDS011;30134;47.866;-4.222;2023-05-31T12:33:21;12.15;;;5.25;;
44428;SDS011;30134;47.866;-4.222;2023-05-31T12:35:47;14.25;;;6.30;;
44428;SDS011;30134;47.866;-4.222;2023-05-31T12:38:13;8.50;;;4.97;;
44428;SDS011;30134;47.866;-4.222;2023-05-31T12:40:41;11.75;;;5.70;;
44428;SDS011;30134;47.866;-4.222;2023-05-31T12:43:08;14.38;;;5.80;;
44428;SDS011;30134;47.866;-4.222;2023-05-31T12:45:39;13.82;;;5.63;;
44428;SDS011;30134;47.866;-4.222;2023-05-31T12:48:07;12.98;;;4.95;;
44428;SDS011;30134;47.866;-4.222;2023-05-31T12:50:35;13.27;;;4.88;;
44428;SDS011;30134;47.866;-4.222;2023-05-31T12:53:04;12.13;;;4.72;;
44428;SDS011;30134;47.866;-4.222;2023-05-31T12:55:32;10.50;;;4.68;;
44428;SDS011;30134;47.866;-4.222;2023-05-31T12:57:58;9.15;;;4.15;;
44428;SDS011;30134;47.866;-4.222;2023-05-31T13:00:24;10.68;;;5.00;;
44428;SDS011;30134;47.866;-4.222;2023-05-31T13:02:50;13.70;;;5.03;;
44428;SDS011;30134;47.866;-4.222;2023-05-31T13:05:17;12.30;;;4.72;;
44428;SDS011;30134;47.866;-4.222;2023-05-31T13:07:44;12.00;;;5.28;;
44428;SDS011;30134;47.866;-4.222;2023-05-31T13:10:11;14.45;;;5.07;;
44428;SDS011;30134;47.866;-4.222;2023-05-31T13:12:39;10.88;;;4.70;;
44428;SDS011;30134;47.866;-4.222;2023-05-31T13:15:05;15.45;;;5.25;;
44428;SDS011;30134;47.866;-4.222;2023-05-31T13:17:32;12.82;;;5.35;;
44428;SDS011;30134;47.866;-4.222;2023-05-31T13:19:58;12.88;;;4.88;;
44428;SDS011;30134;47.866;-4.222;2023-05-31T13:22:24;12.15;;;5.07;;
44428;SDS011;30134;47.866;-4.222;2023-05-31T13:24:50;13.65;;;5.18;;
44428;SDS011;30134;47.866;-4.222;2023-05-31T13:27:16;15.82;;;5.22;;
44428;SDS011;30134;47.866;-4.222;2023-05-31T13:29:43;8.70;;;4.75;;
44428;SDS011;30134;47.866;-4.222;2023-05-31T13:32:09;13.48;;;5.00;;
44428;SDS011;30134;47.866;-4.222;2023-05-31T13:34:35;15.77;;;5.03;;
44428;SDS011;30134;47.866;-4.222;2023-05-31T13:37:01;12.82;;;4.82;;
44428;SDS011;30134;47.866;-4.222;2023-05-31T13:39:27;13.45;;;5.47;;
44428;SDS011;30134;47.866;-4.222;2023-05-31T13:41:54;14.77;;;5.18;;
44428;SDS011;30134;47.866;-4.222;2023-05-31T13:44:20;12.25;;;4.72;;
44428;SDS011;30134;47.866;-4.222;2023-05-31T13:46:46;12.93;;;4.82;;
44428;SDS011;30134;47.866;-4.222;2023-05-31T13:49:12;12.65;;;4.95;;
44428;SDS011;30134;47.866;-4.222;2023-05-31T13:51:40;11.07;;;4.85;;
44428;SDS011;30134;47.866;-4.222;2023-05-31T13:54:07;11.70;;;4.75;;
44428;SDS011;30134;47.866;-4.222;2023-05-31T13:56:33;14.70;;;5.07;;
44428;SDS011;30134;47.866;-4.222;2023-05-31T13:58:59;17.45;;;5.18;;
44428;SDS011;30134;47.866;-4.222;2023-05-31T14:01:25;12.10;;;5.03;;
44428;SDS011;30134;47.866;-4.222;2023-05-31T14:03:51;12.10;;;4.70;;
44428;SDS011;30134;47.866;-4.222;2023-05-31T14:06:19;15.30;;;5.32;;
44428;SDS011;30134;47.866;-4.222;2023-05-31T14:08:45;11.07;;;4.88;;
44428;SDS011;30134;47.866;-4.222;2023-05-31T14:11:11;10.25;;;4.60;;
44428;SDS011;30134;47.866;-4.222;2023-05-31T14:13:38;10.73;;;4.45;;
44428;SDS011;30134;47.866;-4.222;2023-05-31T14:16:04;10.30;;;4.72;;
44428;SDS011;30134;47.866;-4.222;2023-05-31T14:18:30;8.82;;;4.30;;
44428;SDS011;30134;47.866;-4.222;2023-05-31T14:20:57;11.35;;;4.97;;
44428;SDS011;30134;47.866;-4.222;2023-05-31T14:23:23;22.23;;;5.38;;
44428;SDS011;30134;47.866;-4.222;2023-05-31T14:25:49;11.48;;;4.80;;
44428;SDS011;30134;47.866;-4.222;2023-05-31T14:28:16;13.23;;;5.00;;
44428;SDS011;30134;47.866;-4.222;2023-05-31T14:30:42;11.43;;;5.38;;
44428;SDS011;30134;47.866;-4.222;2023-05-31T14:33:13;11.40;;;4.80;;
44428;SDS011;30134;47.866;-4.222;2023-05-31T14:35:40;11.88;;;5.40;;
44428;SDS011;30134;47.866;-4.222;2023-05-31T14:38:06;11.68;;;5.05;;
44428;SDS011;30134;47.866;-4.222;2023-05-31T14:40:32;10.85;;;5.22;;
44428;SDS011;30134;47.866;-4.222;2023-05-31T14:42:58;12.23;;;5.30;;
44428;SDS011;30134;47.866;-4.222;2023-05-31T14:45:24;12.38;;;5.10;;
44428;SDS011;30134;47.866;-4.222;2023-05-31T14:47:50;12.95;;;4.68;;
44428;SDS011;30134;47.866;-4.222;2023-05-31T14:50:16;9.05;;;4.43;;
44428;SDS011;30134;47.866;-4.222;2023-05-31T14:52:42;13.43;;;5.20;;
44428;SDS011;30134;47.866;-4.222;2023-05-31T14:55:09;13.80;;;4.80;;
44428;SDS011;30134;47.866;-4.222;2023-05-31T14:57:34;12.40;;;4.97;;
44428;SDS011;30134;47.866;-4.222;2023-05-31T15:00:01;11.95;;;4.47;;
44428;SDS011;30134;47.866;-4.222;2023-05-31T15:02:29;13.90;;;4.50;;